AirNav   Pilot Hours Calculator
 
 636 users online  

8PN8 Rorer Group Heliport
Fort Washington, Pennsylvania, USA

GOING TO FORT WASHINGTON?


FAA INFORMATION EFFECTIVE 02 JANUARY 2020

Location

FAA Identifier: 8PN8
Lat/Long: 40-08-30.3940N 075-11-18.6310W
40-08.506567N 075-11.310517W
40.1417761,-75.1885086
(estimated)
Elevation: 182 ft. / 55 m (estimated)
Variation: 11W (1985)
From city: 1 mile E of FORT WASHINGTON, PA
Time zone: UTC -5 (UTC -4 during Daylight Saving Time)
Zip code: 19034

Heliport Operations

Heliport use: Private use. Permission required prior to landing
Activation date: 05/1978
Control tower: no
ARTCC: NEW YORK CENTER
FSS: WILLIAMSPORT FLIGHT SERVICE STATION
Attendance: MON-FRI 0700-1900
Wind indicator: yes
Segmented circle: no
Lights: ACTVT HELI LGTS - 131.95.

Heliport Communications

WX AWOS-3 at LOM (4 nm W): 118.925 (215-646-1068)
WX ASOS at PNE (9 nm SE): 121.15 (215-677-0146)
WX ASOS at DYL (12 nm N): 118.875 (215-345-0392)
WX AWOS-3 at CKZ (16 nm N): 126.325 (215-257-7291)
WX ASOS at PHL (16 nm S): PHONE 215-492-9617
WX ASOS at PTW (18 nm W): 119.425 (610-495-0823)
WX ASOS at TTN (19 nm NE): 126.775 (609-538-8690)
WX AWOS-3 at UKT (20 nm NW): 119.475 (215-538-7610)
WX ASOS at VAY (20 nm SE): 119.325 (609-267-1176)
  • MULTICOM FREQ 131.95

Nearby radio navigation aids

VOR radial/distance  VOR name  Freq  Var
ARDr253/14.5YARDLEY VOR/DME108.2010W
PTWr115/17.7POTTSTOWN VORTAC116.5009W
MXEr068/25.9MODENA VORTAC113.2009W
GXUr298/28.3MC GUIRE VORTAC110.6012W
OODr020/30.8WOODSTOWN VORTAC112.8010W
RBVr273/32.0ROBBINSVILLE VORTAC113.8010W
SBJr228/33.4SOLBERG VOR/DME112.9010W
DQOr045/33.8DUPONT VORTAC114.0010W
ETXr148/34.8EAST TEXAS VOR/DME110.2009W
FJCr171/37.1ALLENTOWN VORTAC117.5010W
VCNr354/37.7CEDAR LAKE VOR/DME115.2010W
CYNr309/39.9COYLE VORTAC113.4010W

 
NDB name  Hdg/Dist  Freq  Var  ID
AMBLER090/4.527512WING .. -. --.
LAKEHURST289/39.639611WNEL -. . .-..

Heliport Services

Runway Information

Helipad H1

Dimensions: 100 x 60 ft. / 30 x 18 m
Surface: asphalt, in fair condition
Runway edge lights: PERI
Latitude: 40-08.506567N
Longitude: 075-11.310517W
Elevation: 182.0 ft.
Traffic pattern: leftleft
Markings: none, in fair condition

Heliport Ownership and Management from official FAA records

Ownership: Privately-owned
Owner: RHONE-POULENC RORER
500 ARCOLA RD
COLLEGEVILLE, PA 19426
Phone 215-454-8620
Manager: GARY A. DIVINCENZO
500 ARCOLA RD
COLLEGEVILLE, PA 19426
Phone 215-454-8620

Additional Remarks

A52-H1 40 FT PLINES 300 FT SW; 30 FT BLDGS 500 FT NW.
FOR CD CTC PHILADELPHIA APCH AT 800-354-9884.

Instrument Procedures

There are no published instrument procedures at 8PN8.

Some nearby airports with instrument procedures:

KLOM - Wings Field Airport (4 nm W)
KPNE - Northeast Philadelphia Airport (9 nm SE)
N10 - Perkiomen Valley Airport (12 nm W)
KDYL - Doylestown Airport (12 nm N)
KCKZ - Pennridge Airport (16 nm N)
KPHL - Philadelphia International Airport (16 nm S)
KPTW - Heritage Field Airport (18 nm W)
KTTN - Trenton Mercer Airport (19 nm NE)
KUKT - Quakertown Airport (20 nm NW)
KVAY - South Jersey Regional Airport (20 nm SE)
 
Loc | Ops | Rwys | IFR | FBO | Links
Com | Nav | Svcs | Stats | Notes
Area around 8PN8 (Rorer Group Heliport)
 
Road maps at: MapQuest Bing Google
 
Aerial photo
No photo
 
Sectional chart

 
Airport distance calculator
Flying to Rorer Group Heliport? Find the distance to fly.

From to 8PN8

Sunrise and sunset
Times for 19-Jan-2020
 Local
(UTC-5)
 Zulu
(UTC)
Morning civil twilight06:5111:51
Sunrise07:2012:20
Sunset17:0322:03
Evening civil twilight17:3222:32

Current date and time
Zulu (UTC)  19-Jan-2020 10:38:46
Local (UTC-5)  19-Jan-2020 05:38:46
 
METAR
KLOM 
4nm W 
191015Z AUTO 00000KT 5SM BR SCT006 SCT070 SCT090 01/01 A2972 RMK AO2 T00110009
KPNE 
9nm SE 
191018Z 27005KT 10SM BKN009 OVC070 04/02 A2974 RMK AO2 T00390017
KDYL 
12nm N 
190954Z AUTO 28004KT 10SM BKN065 02/01 A2969 RMK AO2 SLP062 P0003 T00220006
KCKZ 
16nm N 
191015Z AUTO 27006KT 10SM CLR 01/01 A2971 RMK AO2
KPHL 
17nm S 
191003Z 25006KT 10SM SCT011 OVC065 03/02 A2972 RMK AO2 T00330017 $
KPTW 
17nm W 
190954Z AUTO 30003KT 5SM HZ FEW065 M01/ A2973 RMK AO2 SLP067 T1006 $
KTTN 
19nm NE 
ASOS 133.70 609-538-8690
190953Z AUTO 26005KT 10SM OVC070 02/01 A2969 RMK AO2 SLP050 T00220011 $
KUKT 
20nm NW 
191020Z AUTO 00000KT 10SM CLR 01/01 A2971 RMK A01
TAF
KPNE 
9nm SE 
190908Z 1909/2006 28008KT P6SM OVC008 TEMPO 1910/1911 SCT008 BKN060 FM191100 28010KT P6SM BKN045 FM191400 29014G26KT P6SM SCT045 FM192300 31010G18KT P6SM SCT045 TEMPO 2004/2006 BKN045
KPHL 
17nm S 
190906Z 1909/2012 26010KT P6SM BKN012 OVC060 TEMPO 1909/1911 SCT012 BKN060 FM191100 27010KT P6SM BKN045 FM191400 29016G28KT P6SM SCT045 FM192300 31012G20KT P6SM SCT045 TEMPO 2004/2008 BKN045
KTTN 
19nm NE 
190543Z 1906/2006 24008KT P6SM OVC006 TEMPO 1906/1908 4SM -RA BR FM190800 27008KT P6SM BKN006 OVC045 FM191000 29008KT P6SM BKN045 FM191400 30012G24KT P6SM SCT045 FM192300 31010G18KT P6SM SCT045 TEMPO 2003/2006 BKN045
NOTAMs
Click for the latest NOTAMs
NOTAMs are issued by the DoD/FAA and will open in a separate window not controlled by AirNav.

 

 
 

Would you like to see your business listed on this page?

 If your business provides an interesting product or service to pilots, flight crews, aircraft, or users of the Rorer Group Heliport, you should consider listing it here.  To start the listing process, click on the button below
 
Add a business
 

Other Pages about Rorer Group Heliport

Update a link
 
Copyright © AirNav, LLC. All rights reserved. Privacy Policy  Contact